Time;durP1;ratioP1;P1;durP2;ratioP2;P2;SDS_P1;SDS_P2;PMS_P1;PMS_P2;Temp;Humidity;BMP_temperature;BMP_pressure;BME280_temperature;BME280_humidity;BME280_pressure;Samples;Min_cycle;Max_cycle;Signal;HPM_P1;HPM_P2
2022/01/09 00:00:29;;;;;;;0.52;0.50;;;5.70;99.90;;;5.52;90.43;98377.41;5204431;28;20056;-66
2022/01/09 00:03:01;;;;;;;1.75;0.50;;;5.70;99.90;;;5.54;90.79;98373.13;5204481;28;20410;-66
2022/01/09 00:05:34;;;;;;;0.45;0.45;;;5.70;99.90;;;5.63;90.06;98376.75;5203989;28;20076;-67
2022/01/09 00:08:07;;;;;;;0.47;0.47;;;5.70;99.90;;;5.67;89.52;98373.38;5204115;28;20049;-66
2022/01/09 00:10:46;;;;;;;1.80;0.50;;;5.80;99.90;;;5.67;88.95;98373.38;5203879;28;20050;-66
2022/01/09 00:13:18;;;;;;;0.55;0.55;;;5.80;99.90;;;5.64;89.47;98370.72;5204799;28;20132;-66
2022/01/09 00:15:50;;;;;;;0.57;0.50;;;5.80;99.90;;;5.67;89.47;98359.56;5204003;28;20049;-66
2022/01/09 00:18:22;;;;;;;0.75;0.65;;;5.80;99.90;;;5.59;89.28;98367.19;5203881;28;20501;-67
2022/01/09 00:20:54;;;;;;;0.35;0.30;;;5.80;99.90;;;5.66;89.88;98355.22;5204071;28;20059;-66
2022/01/09 00:23:26;;;;;;;0.55;0.52;;;5.80;99.90;;;5.65;90.07;98356.94;5204569;28;20046;-66
2022/01/09 00:26:00;;;;;;;0.65;0.50;;;5.80;99.90;;;5.60;90.38;98360.31;5203567;28;20556;-66
2022/01/09 00:28:32;;;;;;;0.50;0.50;;;5.80;99.90;;;5.62;90.18;98358.63;5204458;28;20056;-66
2022/01/09 00:31:04;;;;;;;2.20;0.60;;;5.80;99.90;;;5.62;90.29;98351.75;5204169;28;20562;-66
2022/01/09 00:33:38;;;;;;;0.32;0.30;;;5.80;99.90;;;5.58;90.64;98356.84;5204236;28;20054;-66
2022/01/09 00:36:10;;;;;;;0.30;0.30;;;5.80;99.90;;;5.55;91.06;98352.50;5203863;28;20049;-66
2022/01/09 00:38:42;;;;;;;1.80;0.43;;;5.80;99.90;;;5.61;91.85;98343.97;5203687;28;20494;-66
2022/01/09 00:41:15;;;;;;;0.98;0.52;;;5.80;99.90;;;5.55;91.56;98344.75;5204576;28;20502;-66
2022/01/09 00:43:47;;;;;;;1.48;0.60;;;5.70;99.90;;;5.64;91.85;98339.72;5203285;28;20131;-66
2022/01/09 00:46:19;;;;;;;0.40;0.40;;;5.70;99.90;;;5.59;92.31;98340.47;5203943;28;20053;-66
2022/01/09 00:48:51;;;;;;;0.43;0.43;;;5.70;99.90;;;5.54;92.31;98332.69;5203810;28;20065;-66
2022/01/09 00:51:23;;;;;;;0.40;0.40;;;5.70;99.90;;;5.57;92.94;98332.72;5204324;28;20635;-66
2022/01/09 00:53:55;;;;;;;1.25;0.63;;;5.70;99.90;;;5.51;93.29;98342.09;5203128;28;20052;-66
2022/01/09 00:56:28;;;;;;;0.80;0.43;;;5.70;99.90;;;5.45;93.23;98335.09;5204393;28;20049;-66
2022/01/09 00:59:00;;;;;;;0.50;0.45;;;5.70;99.90;;;5.44;93.85;98343.69;5203690;28;20049;-66
2022/01/09 01:01:32;;;;;;;0.90;0.43;;;5.60;99.90;;;5.47;94.27;98337.69;5203720;28;20057;-67
2022/01/09 01:04:05;;;;;;;1.17;0.60;;;5.60;99.90;;;5.47;94.40;98340.28;5207484;28;20502;-66
2022/01/09 01:06:37;;;;;;;0.40;0.40;;;5.60;99.90;;;5.47;94.91;98338.56;5208354;28;20059;-66
2022/01/09 01:09:09;;;;;;;0.98;0.85;;;5.60;99.90;;;5.45;94.41;98333.38;5207534;28;20059;-66
2022/01/09 01:11:42;;;;;;;0.68;0.38;;;5.60;99.90;;;5.51;95.47;98339.50;5208201;28;20595;-66
2022/01/09 01:14:14;;;;;;;1.08;0.50;;;5.60;99.90;;;5.45;95.04;98337.69;5207541;28;20053;-66
2022/01/09 01:16:46;;;;;;;1.13;0.60;;;5.60;99.90;;;5.53;95.54;98333.50;5207768;28;20046;-66
2022/01/09 01:19:18;;;;;;;2.13;0.70;;;5.60;99.90;;;5.46;95.50;98334.25;5207410;28;20056;-66
2022/01/09 01:21:50;;;;;;;0.68;0.50;;;5.60;99.90;;;5.43;96.00;98329.06;5207998;28;20054;-66
2022/01/09 01:24:22;;;;;;;0.40;0.40;;;5.60;99.90;;;5.36;96.74;98329.81;5206549;28;20132;-66
2022/01/09 01:26:56;;;;;;;0.50;0.50;;;5.60;99.90;;;5.35;97.11;98333.25;5207862;28;20513;-66
2022/01/09 01:29:28;;;;;;;0.55;0.50;;;5.60;99.90;;;5.32;96.96;98331.44;5207660;28;20042;-68
2022/01/09 01:32:00;;;;;;;0.43;0.43;;;5.50;99.90;;;5.31;97.04;98344.34;5207400;28;20063;-66
2022/01/09 01:34:33;;;;;;;0.85;0.70;;;5.50;99.90;;;5.31;97.34;98340.06;5207096;28;20504;-66
2022/01/09 01:37:05;;;;;;;1.42;0.47;;;5.50;99.90;;;5.27;97.44;98343.41;5207294;28;20050;-66
2022/01/09 01:39:37;;;;;;;0.60;0.60;;;5.50;99.90;;;5.25;97.41;98347.69;5207375;28;20046;-66
2022/01/09 01:42:10;;;;;;;0.88;0.70;;;5.50;99.90;;;5.25;97.94;98339.94;5207541;28;20489;-66
2022/01/09 01:44:44;;;;;;;0.60;0.60;;;5.50;99.90;;;5.29;97.56;98344.34;5206808;28;20513;-66
2022/01/09 01:47:21;;;;;;;0.98;0.80;;;5.50;99.90;;;5.29;98.28;98341.75;5206397;28;20045;-66
2022/01/09 01:49:53;;;;;;;0.60;0.50;;;5.50;99.90;;;5.27;98.28;98347.72;5207399;28;20492;-66
2022/01/09 01:52:30;;;;;;;1.45;0.63;;;5.50;99.90;;;5.32;98.08;98346.94;5207066;28;20053;-66
2022/01/09 01:55:02;;;;;;;0.95;0.65;;;5.50;99.90;;;5.28;98.92;98344.28;5205799;28;20057;-66
2022/01/09 01:57:36;;;;;;;0.70;0.70;;;5.50;99.90;;;5.27;98.94;98347.72;5205757;28;20502;-66
2022/01/09 02:00:12;;;;;;;0.77;0.50;;;5.50;99.90;;;5.24;99.01;98347.69;5205498;28;20041;-66
2022/01/09 02:02:44;;;;;;;1.38;0.65;;;5.40;99.90;;;5.30;99.06;98346.06;5205960;28;20053;-66
2022/01/09 02:05:16;;;;;;;0.40;0.30;;;5.50;99.90;;;5.36;98.95;98342.72;5205742;28;20504;-66
2022/01/09 02:07:52;;;;;;;0.52;0.50;;;5.50;99.90;;;5.56;98.87;98351.66;5204914;28;20055;-66
2022/01/09 02:10:23;;;;;;;;;;;5.60;99.90;;;5.60;98.70;98339.63;5205723;28;20075;-66
2022/01/09 02:12:57;;;;;;;0.30;0.30;;;5.60;99.90;;;5.54;98.95;98348.19;5205211;28;19921;-66
2022/01/09 02:15:34;;;;;;;2.10;0.43;;;5.60;99.90;;;5.56;99.00;98348.19;5204516;28;20470;-66
2022/01/09 02:18:09;;;;;;;1.58;0.50;;;5.60;99.90;;;5.59;99.70;98351.69;5205631;28;20050;-66
2022/01/09 02:20:43;;;;;;;0.50;0.50;;;5.70;99.90;;;5.61;100.00;98344.84;5205105;28;20546;-66
2022/01/09 02:23:17;;;;;;;0.50;0.43;;;5.70;99.90;;;5.63;100.00;98331.94;5205179;28;20053;-66
2022/01/09 02:25:50;;;;;;;0.68;0.50;;;5.80;99.90;;;5.78;100.00;98367.47;5204776;28;20128;-67
2022/01/09 02:28:22;;;;;;;2.25;0.40;;;5.80;99.90;;;5.83;100.00;98356.38;5204374;28;20070;-66
2022/01/09 02:30:54;;;;;;;0.32;0.20;;;5.90;99.90;;;5.73;100.00;98396.69;5204986;28;20140;-67
2022/01/09 02:33:26;;;;;;;0.50;0.50;;;5.90;99.90;;;5.65;100.00;98381.94;5205664;28;20501;-66
2022/01/09 02:35:59;;;;;;;0.43;0.40;;;5.90;99.90;;;5.54;100.00;98402.44;5204796;28;20417;-67
2022/01/09 02:38:31;;;;;;;0.50;0.50;;;5.80;99.90;;;5.36;100.00;98394.38;5205290;28;20049;-66
2022/01/09 02:41:04;;;;;;;1.08;0.52;;;5.70;99.90;;;5.34;100.00;98437.38;5205168;28;20060;-67
2022/01/09 02:43:36;;;;;;;0.35;0.30;;;5.70;99.90;;;5.28;100.00;98443.31;5205307;28;20045;-66
2022/01/09 02:46:15;;;;;;;0.50;0.50;;;5.70;99.90;;;5.26;100.00;98469.94;5204752;28;20053;-67
2022/01/09 02:48:47;;;;;;;1.23;0.45;;;5.60;99.90;;;5.20;100.00;98478.44;5204598;28;20060;-66
2022/01/09 02:51:20;;;;;;;1.40;0.60;;;5.50;99.90;;;5.16;100.00;98484.41;5205397;28;20072;-67
2022/01/09 02:53:58;;;;;;;0.40;0.40;;;5.50;99.90;;;5.12;100.00;98503.25;5168394;28;1053603;-66
2022/01/09 02:56:30;;;;;;;0.63;0.40;;;5.50;99.90;;;5.05;100.00;98520.34;5206266;28;20053;-66
2022/01/09 02:59:03;;;;;;;0.52;0.38;;;5.40;99.90;;;4.99;100.00;98532.25;5206465;28;20052;-66
2022/01/09 03:01:34;;;;;;;0.63;0.50;;;5.30;99.90;;;4.93;100.00;98545.91;5206077;28;20057;-66
2022/01/09 03:04:06;;;;;;;2.63;0.40;;;5.30;99.90;;;4.83;100.00;98543.97;5205599;28;20067;-66
2022/01/09 03:06:40;;;;;;;0.63;0.60;;;5.20;99.90;;;4.78;100.00;98561.06;5205835;28;20056;-66
2022/01/09 03:09:12;;;;;;;2.15;0.70;;;5.20;99.90;;;4.71;100.00;98567.81;5204265;28;20401;-66
2022/01/09 03:11:47;;;;;;;1.48;0.60;;;5.10;99.90;;;4.69;100.00;98568.59;5206152;28;20051;-66
2022/01/09 03:14:19;;;;;;;1.60;0.70;;;5.10;99.90;;;4.72;100.00;98566.09;5205663;28;20453;-66
2022/01/09 03:16:50;;;;;;;0.82;0.80;;;5.10;99.90;;;4.70;100.00;98585.84;5206209;28;20474;-66
2022/01/09 03:19:22;;;;;;;2.28;0.70;;;5.10;99.90;;;4.69;100.00;98603.00;5205571;28;20060;-66
2022/01/09 03:21:56;;;;;;;2.95;0.93;;;5.10;99.90;;;4.72;100.00;98617.72;5205902;28;20056;-66
2022/01/09 03:24:28;;;;;;;3.72;0.90;;;5.10;99.90;;;4.75;100.00;98612.59;5205099;28;20050;-66
2022/01/09 03:27:01;;;;;;;2.97;1.10;;;5.10;99.90;;;4.92;100.00;98623.31;5205845;28;20390;-66
2022/01/09 03:29:33;;;;;;;5.63;1.50;;;5.20;99.90;;;4.92;100.00;98613.00;5205311;28;20053;-66
2022/01/09 03:32:07;;;;;;;2.55;1.10;;;5.20;99.90;;;4.94;100.00;98621.63;5205730;28;20429;-66
2022/01/09 03:34:40;;;;;;;3.85;0.85;;;5.30;99.90;;;4.96;100.00;98625.16;5205080;28;20045;-66
2022/01/09 03:37:13;;;;;;;7.22;1.55;;;5.30;99.90;;;4.97;100.00;98640.66;5205491;28;20045;-66
2022/01/09 03:39:45;;;;;;;3.33;1.15;;;5.30;99.90;;;5.02;100.00;98646.81;5205325;28;20053;-66
2022/01/09 03:42:17;;;;;;;6.75;1.70;;;5.30;99.90;;;5.13;100.00;98645.31;5205442;28;20405;-66
2022/01/09 03:44:49;;;;;;;6.55;1.40;;;5.40;99.90;;;5.13;100.00;98649.63;5204804;28;20064;-66
2022/01/09 03:47:21;;;;;;;8.10;1.25;;;5.40;99.90;;;5.13;100.00;98655.66;5205490;28;20424;-66
2022/01/09 03:49:53;;;;;;;7.35;1.60;;;5.40;99.90;;;5.15;100.00;98659.16;5205301;28;20052;-66
2022/01/09 03:52:27;;;;;;;9.52;1.60;;;5.40;99.90;;;5.11;100.00;98665.09;5205076;28;20053;-66
2022/01/09 03:54:59;;;;;;;3.97;1.33;;;5.50;99.90;;;5.11;100.00;98683.16;5204379;28;20081;-66
2022/01/09 03:57:31;;;;;;;4.55;1.30;;;5.50;99.90;;;5.16;100.00;98673.81;5205160;28;20045;-66
2022/01/09 04:00:07;;;;;;;10.10;2.05;;;5.50;99.90;;;5.20;100.00;98679.91;5205087;28;20050;-66
2022/01/09 04:02:39;;;;;;;8.20;1.38;;;5.50;99.90;;;5.18;100.00;98679.88;5205173;28;20059;-66
2022/01/09 04:05:12;;;;;;;5.07;1.35;;;5.50;99.90;;;5.14;100.00;98683.22;5204455;28;20415;-66
2022/01/09 04:07:45;;;;;;;9.55;1.67;;;5.50;99.90;;;5.18;100.00;98690.22;5205173;28;20053;-66
2022/01/09 04:10:19;;;;;;;9.02;1.55;;;5.50;99.90;;;5.16;100.00;98694.47;5205141;28;20051;-66
2022/01/09 04:12:58;;;;;;;8.65;2.22;;;5.50;99.90;;;5.20;100.00;98705.72;5204947;28;20051;-66
2022/01/09 04:15:31;;;;;;;6.95;1.63;;;5.50;99.90;;;5.22;100.00;98713.53;5204241;28;20103;-66
2022/01/09 04:18:03;;;;;;;7.85;1.83;;;5.50;99.90;;;5.27;100.00;98709.31;5204798;28;20050;-66
2022/01/09 04:20:35;;;;;;;7.57;1.58;;;5.50;99.90;;;5.33;100.00;98724.97;5204910;28;20056;-66
2022/01/09 04:23:08;;;;;;;10.48;2.42;;;5.60;99.90;;;5.28;100.00;98731.72;5204895;28;20055;-66
2022/01/09 04:25:40;;;;;;;8.77;2.60;;;5.60;99.90;;;5.41;100.00;98734.66;5204035;28;20049;-66
2022/01/09 04:28:15;;;;;;;7.93;2.55;;;5.60;99.90;;;5.40;100.00;98738.06;5204771;28;20057;-66
2022/01/09 04:30:47;;;;;;;12.25;2.45;;;5.60;99.90;;;5.46;100.00;98734.72;5204459;28;20056;-66
2022/01/09 04:33:19;;;;;;;9.23;1.85;;;5.70;99.90;;;5.59;100.00;98749.66;5204706;28;20049;-66
2022/01/09 04:35:51;;;;;;;12.13;2.28;;;5.70;99.90;;;5.57;100.00;98740.16;5204358;28;20096;-66
2022/01/09 04:38:24;;;;;;;12.23;2.63;;;5.80;99.90;;;5.50;100.00;98764.13;5204112;28;20054;-66
2022/01/09 04:40:56;;;;;;;14.63;3.35;;;5.80;99.90;;;5.60;100.00;98777.25;5204448;28;20049;-66
2022/01/09 04:43:28;;;;;;;10.85;2.03;;;5.80;99.90;;;5.58;100.00;98778.94;5204529;28;20050;-66
2022/01/09 04:46:01;;;;;;;9.15;1.77;;;5.80;99.90;;;5.73;100.00;98779.28;5204125;28;20050;-67
2022/01/09 04:48:33;;;;;;;9.82;2.38;;;5.90;99.90;;;5.70;100.00;98784.38;5204488;28;20055;-67
2022/01/09 04:51:09;;;;;;;7.88;1.98;;;5.90;99.90;;;5.78;100.00;98800.06;5204237;28;20048;-67
2022/01/09 04:53:42;;;;;;;15.00;2.70;;;5.90;99.90;;;5.86;100.00;98808.84;5204134;28;20081;-67
2022/01/09 04:56:15;;;;;;;10.27;2.40;;;6.00;99.90;;;5.78;100.00;98814.69;5204161;28;20052;-67
2022/01/09 04:58:47;;;;;;;19.23;2.70;;;6.00;99.90;;;5.78;100.00;98832.81;5204345;28;20095;-67
2022/01/09 05:01:19;;;;;;;16.67;2.67;;;6.00;99.90;;;5.80;100.00;98831.97;5203900;28;20049;-67
2022/01/09 05:03:51;;;;;;;11.63;3.33;;;6.00;99.90;;;5.70;100.00;98843.84;5203992;28;20068;-67
2022/01/09 05:06:24;;;;;;;11.95;2.50;;;6.00;99.90;;;5.76;100.00;98856.03;5204556;28;20509;-67
2022/01/09 05:08:57;;;;;;;18.92;2.97;;;6.00;99.90;;;5.77;100.00;98864.66;5204249;28;20506;-67
2022/01/09 05:11:29;;;;;;;13.75;2.92;;;6.00;99.90;;;5.72;100.00;98872.31;5203870;28;20052;-67
2022/01/09 05:14:01;;;;;;;14.45;2.20;;;6.00;99.90;;;5.77;100.00;98877.59;5203528;28;20057;-67
2022/01/09 05:16:33;;;;;;;10.48;2.50;;;6.00;99.90;;;5.73;100.00;98887.84;5204401;28;20056;-67
2022/01/09 05:19:08;;;;;;;14.32;2.42;;;6.00;99.90;;;5.82;100.00;98899.25;5204104;28;20065;-67
2022/01/09 05:21:40;;;;;;;10.32;2.45;;;6.00;99.90;;;5.85;100.00;98918.28;5204229;28;20045;-67
2022/01/09 05:24:13;;;;;;;9.43;2.20;;;6.00;99.90;;;5.90;100.00;98915.81;5203208;28;20510;-67
2022/01/09 05:26:45;;;;;;;7.18;1.88;;;6.10;99.90;;;5.91;100.00;98931.41;5204308;28;20405;-67
2022/01/09 05:29:17;;;;;;;14.00;2.83;;;6.10;99.90;;;5.94;100.00;98935.78;5204242;28;20477;-67
2022/01/09 05:31:49;;;;;;;9.43;2.20;;;6.10;99.90;;;5.86;100.00;98935.53;5204296;28;20045;-67
2022/01/09 05:34:22;;;;;;;14.18;2.50;;;6.10;99.90;;;5.90;100.00;98957.19;5203326;28;20053;-67
2022/01/09 05:36:54;;;;;;;8.40;2.15;;;6.10;99.90;;;5.89;100.00;98956.31;5204072;28;20060;-67
2022/01/09 05:39:28;;;;;;;8.52;2.10;;;6.10;99.90;;;5.82;100.00;98957.00;5204254;28;20060;-67
2022/01/09 05:42:02;;;;;;;7.32;1.90;;;6.10;99.90;;;5.81;100.00;98959.56;5203808;28;20048;-67
2022/01/09 05:44:34;;;;;;;9.98;1.85;;;6.10;99.90;;;5.92;99.88;98971.06;5203269;28;20049;-67
2022/01/09 05:47:07;;;;;;;6.22;1.65;;;6.10;99.90;;;5.88;99.39;98989.91;5203776;28;20053;-67
2022/01/09 05:49:39;;;;;;;6.65;1.90;;;6.10;99.90;;;5.92;98.84;98981.41;5207392;28;20050;-67
2022/01/09 05:52:11;;;;;;;13.45;1.85;;;6.10;99.90;;;5.81;98.83;98993.19;5207425;28;20069;-67
2022/01/09 05:54:44;;;;;;;4.65;1.42;;;6.10;99.90;;;5.92;98.52;99002.09;5316668;22;20045;-69
2022/01/09 05:57:16;;;;;;;11.65;1.90;;;6.10;99.90;;;5.96;97.28;99003.94;5207898;28;20053;-70
2022/01/09 05:59:48;;;;;;;6.90;2.03;;;6.10;99.90;;;5.91;96.62;99006.41;5208387;28;20049;-70
2022/01/09 06:02:20;;;;;;;7.72;2.08;;;6.10;99.90;;;5.85;96.23;99011.38;5207620;28;20050;-68
2022/01/09 06:04:52;;;;;;;8.18;1.60;;;6.10;99.90;;;5.85;95.68;99013.09;5207364;28;20053;-70
2022/01/09 06:07:24;;;;;;;9.25;1.92;;;6.10;99.90;;;5.87;95.85;99016.59;5207498;28;20049;-70
2022/01/09 06:09:57;;;;;;;6.10;1.60;;;6.10;99.90;;;5.90;96.11;99034.78;5207351;28;20056;-70
2022/01/09 06:12:29;;;;;;;9.60;1.90;;;6.10;99.90;;;5.94;95.00;99039.22;5207668;28;20049;-70
2022/01/09 06:15:02;;;;;;;11.93;1.90;;;6.10;99.90;;;5.94;94.82;99049.56;5207610;28;20045;-70
2022/01/09 06:17:37;;;;;;;6.88;1.55;;;6.10;99.90;;;5.94;94.57;99058.22;5208241;28;20056;-70
2022/01/09 06:20:13;;;;;;;9.48;1.88;;;6.10;99.90;;;5.95;93.42;99066.84;5207313;28;20456;-70
2022/01/09 06:22:45;;;;;;;8.77;1.73;;;6.10;99.90;;;6.05;93.46;99061.03;5208459;28;20053;-70
2022/01/09 06:25:19;;;;;;;7.97;1.65;;;6.20;99.90;;;6.02;92.94;99075.63;5208286;28;20049;-70
2022/01/09 06:27:51;;;;;;;8.10;2.15;;;6.10;99.90;;;6.00;92.24;99075.59;5208464;28;20407;-70
2022/01/09 06:30:23;;;;;;;8.75;1.73;;;6.20;99.90;;;6.02;92.17;99084.25;5207869;28;20058;-70
2022/01/09 06:32:55;;;;;;;5.53;1.83;;;6.20;99.90;;;5.92;92.42;99090.03;5207522;28;20072;-70
2022/01/09 06:35:27;;;;;;;5.22;1.40;;;6.10;99.90;;;5.97;92.82;99098.78;5207564;28;20046;-70
2022/01/09 06:37:59;;;;;;;8.80;1.77;;;6.10;99.90;;;6.03;91.58;99108.41;5208222;28;20088;-68
2022/01/09 06:40:33;;;;;;;12.70;2.30;;;6.20;99.90;;;5.93;91.34;99107.28;5207422;28;20051;-68
2022/01/09 06:43:06;;;;;;;8.98;2.00;;;6.10;99.90;;;5.93;91.21;99120.22;5207658;28;20453;-68
2022/01/09 06:45:38;;;;;;;10.07;2.38;;;6.10;99.90;;;5.86;91.99;99131.19;5207514;28;20124;-68
2022/01/09 06:48:10;;;;;;;8.32;1.55;;;6.10;99.90;;;5.84;92.96;99122.53;5207397;28;20059;-68
2022/01/09 06:50:42;;;;;;;6.65;2.00;;;6.10;99.90;;;5.90;92.44;99125.28;5207697;28;20494;-68
2022/01/09 06:53:14;;;;;;;5.78;1.35;;;6.10;99.90;;;5.91;92.62;99129.66;5207657;28;20136;-68
2022/01/09 06:55:48;;;;;;;7.32;1.70;;;6.10;99.90;;;5.90;92.23;99133.91;5208289;28;20053;-68
2022/01/09 06:58:21;;;;;;;6.93;1.92;;;6.10;99.90;;;5.88;91.58;99134.72;5207449;28;20053;-69
2022/01/09 07:00:53;;;;;;;12.55;1.90;;;6.10;99.90;;;5.87;92.19;99138.16;5206657;28;20091;-69
2022/01/09 07:03:25;;;;;;;5.05;1.38;;;6.10;99.90;;;5.91;91.83;99150.34;5207692;28;20052;-68
2022/01/09 07:05:57;;;;;;;7.50;1.92;;;6.10;99.90;;;5.88;91.52;99160.56;5206710;28;20053;-69
2022/01/09 07:08:33;;;;;;;7.85;2.30;;;6.10;99.90;;;5.88;91.91;99161.44;5207167;28;20497;-69
2022/01/09 07:11:07;;;;;;;7.57;1.77;;;6.10;99.90;;;5.98;90.26;99163.47;5207223;28;20470;-69
2022/01/09 07:13:39;;;;;;;14.65;1.75;;;6.10;99.90;;;6.01;89.99;99179.94;5207317;28;20050;-71
2022/01/09 07:16:11;;;;;;;8.98;2.22;;;6.10;99.90;;;5.92;90.47;99188.28;5206879;28;20049;-71
2022/01/09 07:18:43;;;;;;;12.20;2.28;;;6.10;99.90;;;5.92;90.33;99188.28;5206951;28;20051;-71
2022/01/09 07:21:15;;;;;;;7.82;2.03;;;6.10;99.90;;;5.91;90.37;99186.53;5206299;28;20050;-70
2022/01/09 07:23:47;;;;;;;5.10;1.80;;;6.10;99.90;;;5.91;89.77;99199.47;5206457;28;20053;-71
2022/01/09 07:26:20;;;;;;;5.75;1.70;;;6.10;99.90;;;5.89;90.30;99206.28;5206685;28;20045;-71
2022/01/09 07:28:52;;;;;;;12.13;1.98;;;6.10;99.90;;;5.89;91.10;99204.56;5206589;28;20049;-71
2022/01/09 07:31:24;;;;;;;5.40;1.83;;;6.10;99.90;;;5.96;90.26;99223.75;5206316;28;20050;-71
2022/01/09 07:33:56;;;;;;;5.25;1.90;;;6.10;99.90;;;5.96;90.54;99231.53;5206211;28;20045;-71
2022/01/09 07:36:28;;;;;;;5.57;1.98;;;6.10;99.90;;;6.02;90.25;99221.34;5206056;28;20041;-71
2022/01/09 07:39:00;;;;;;;9.73;1.88;;;6.10;99.90;;;6.01;89.83;99235.13;5206270;28;20053;-71
2022/01/09 07:41:34;;;;;;;7.47;1.80;;;6.10;99.90;;;5.99;90.09;99236.75;5206232;28;20049;-70
2022/01/09 07:44:06;;;;;;;9.35;2.17;;;6.10;99.90;;;5.95;90.10;99245.28;5205788;28;20049;-71
2022/01/09 07:46:39;;;;;;;5.57;1.67;;;6.10;99.90;;;5.93;89.89;99247.84;5205798;28;20045;-71
2022/01/09 07:49:11;;;;;;;7.25;2.08;;;6.10;99.90;;;5.94;90.33;99259.06;5205896;28;20049;-71
2022/01/09 07:51:44;;;;;;;9.88;2.17;;;6.10;99.90;;;6.03;90.51;99263.59;5205785;28;20045;-71
2022/01/09 07:54:16;;;;;;;9.35;2.15;;;6.10;99.90;;;5.99;90.32;99272.97;5205564;28;20442;-71
2022/01/09 07:56:50;;;;;;;7.57;2.20;;;6.10;99.90;;;6.04;90.16;99280.88;5205463;28;20056;-71
2022/01/09 07:59:22;;;;;;;11.18;1.88;;;6.10;99.90;;;6.05;89.31;99287.78;5205781;28;20045;-71
2022/01/09 08:01:53;;;;;;;5.97;2.30;;;6.10;99.90;;;6.01;90.12;99286.84;5205584;28;20467;-70
2022/01/09 08:04:25;;;;;;;8.20;1.95;;;6.10;99.90;;;6.02;89.88;99292.91;5205197;28;20053;-70
2022/01/09 08:06:57;;;;;;;7.55;2.13;;;6.10;99.90;;;6.03;90.37;99300.69;5205582;28;20116;-71
2022/01/09 08:09:29;;;;;;;7.32;2.00;;;6.10;99.90;;;6.01;89.90;99306.66;5205547;28;20510;-71
2022/01/09 08:12:03;;;;;;;9.35;2.28;;;6.10;99.90;;;6.01;90.00;99314.44;5204756;28;20049;-71
2022/01/09 08:14:35;;;;;;;7.78;2.40;;;6.10;99.90;;;5.98;89.62;99317.78;5205485;28;20720;-69
2022/01/09 08:17:07;;;;;;;9.30;1.88;;;6.10;99.90;;;5.96;90.04;99319.44;5205229;28;20045;-71
2022/01/09 08:19:40;;;;;;;5.30;1.63;;;6.10;99.90;;;5.90;90.83;99329.59;5205544;28;20402;-71
2022/01/09 08:22:12;;;;;;;10.35;2.15;;;6.00;99.90;;;5.87;90.90;99330.38;5205270;28;20359;-71
2022/01/09 08:24:44;;;;;;;6.30;1.63;;;6.10;99.90;;;5.97;90.71;99339.31;5205215;28;20410;-71
2022/01/09 08:27:18;;;;;;;7.15;1.83;;;6.00;99.90;;;5.96;89.81;99330.66;5205575;28;20045;-71
2022/01/09 08:29:50;;;;;;;6.95;1.73;;;6.10;99.90;;;5.93;90.16;99340.94;5205389;28;20490;-71
2022/01/09 08:32:22;;;;;;;6.72;1.83;;;6.00;99.90;;;5.92;90.93;99346.91;5205242;28;20059;-70
2022/01/09 08:34:54;;;;;;;6.70;1.83;;;6.00;99.90;;;5.86;90.89;99348.41;5204895;28;20045;-70
2022/01/09 08:37:26;;;;;;;9.45;1.75;;;6.00;99.90;;;5.88;91.27;99347.66;5204971;28;20050;-71
2022/01/09 08:39:58;;;;;;;4.43;2.00;;;6.00;99.90;;;5.88;91.94;99355.41;5205064;28;20421;-71
2022/01/09 08:42:31;;;;;;;9.93;1.73;;;6.00;99.90;;;5.90;92.07;99364.06;5204960;28;20047;-70
2022/01/09 08:45:04;;;;;;;7.07;1.60;;;6.00;99.90;;;5.86;91.56;99359.63;5204588;28;20054;-71
2022/01/09 08:47:38;;;;;;;11.93;2.55;;;6.00;99.90;;;5.78;92.29;99366.28;5205004;28;20046;-71
2022/01/09 08:50:12;;;;;;;6.88;1.88;;;5.90;99.90;;;5.78;93.04;99368.00;5204950;28;20054;-71
2022/01/09 08:52:44;;;;;;;6.05;1.88;;;5.90;99.90;;;5.83;93.06;99371.59;5204790;28;20084;-68
2022/01/09 08:55:16;;;;;;;7.22;2.47;;;6.00;99.90;;;5.91;93.08;99368.44;5204495;28;20053;-69
2022/01/09 08:57:50;;;;;;;10.98;2.72;;;6.00;99.90;;;5.97;92.48;99378.09;5204980;28;20092;-71
2022/01/09 09:00:22;;;;;;;5.90;2.25;;;6.00;99.90;;;5.97;91.58;99372.94;5204984;28;20072;-71
2022/01/09 09:02:55;;;;;;;13.68;3.60;;;6.00;99.90;;;6.05;91.23;99380.91;5204779;28;20394;-70
2022/01/09 09:05:27;;;;;;;8.70;2.40;;;6.10;99.90;;;6.04;91.15;99380.03;5204519;28;20049;-69
2022/01/09 09:07:59;;;;;;;9.50;2.05;;;6.10;99.90;;;6.04;90.87;99380.03;5204864;28;20483;-71
2022/01/09 09:10:31;;;;;;;10.00;2.17;;;6.10;99.90;;;6.09;90.54;99388.81;5204850;28;20132;-69
2022/01/09 09:13:04;;;;;;;11.93;3.00;;;6.20;99.90;;;6.07;89.79;99380.16;5204667;28;20129;-68
2022/01/09 09:15:38;;;;;;;6.15;1.80;;;6.20;99.90;;;6.10;90.19;99400.94;5204766;28;20403;-70
2022/01/09 09:18:10;;;;;;;5.57;2.47;;;6.20;99.90;;;6.15;89.64;99403.66;5204562;28;20052;-69
2022/01/09 09:20:44;;;;;;;7.03;2.47;;;6.20;99.90;;;6.22;89.06;99406.47;5204382;28;20053;-70
2022/01/09 09:23:16;;;;;;;8.32;3.38;;;6.20;99.90;;;6.31;89.61;99387.75;5206086;28;20453;-71
2022/01/09 09:25:48;;;;;;;12.73;3.85;;;6.30;99.90;;;6.27;89.31;99413.50;5208316;28;20049;-71
2022/01/09 09:28:22;;;;;;;10.18;2.28;;;6.30;99.90;;;6.36;89.48;99421.53;5208698;28;20049;-71
2022/01/09 09:30:54;;;;;;;10.35;1.98;;;6.40;99.90;;;6.38;88.96;99427.63;5208530;28;20397;-71
2022/01/09 09:33:26;;;;;;;6.22;2.25;;;6.40;99.90;;;6.41;88.09;99427.72;5208164;28;20053;-70
2022/01/09 09:35:59;;;;;;;8.25;2.03;;;6.40;99.90;;;6.36;87.53;99439.66;5207726;28;20064;-70
2022/01/09 09:38:32;;;;;;;5.88;1.95;;;6.40;99.90;;;6.39;88.33;99445.81;5208315;28;20046;-72
2022/01/09 09:41:04;;;;;;;6.18;2.50;;;6.40;99.90;;;6.38;87.99;99454.38;5208319;28;20061;-69
2022/01/09 09:43:37;;;;;;;6.40;2.47;;;6.50;99.90;;;6.38;88.03;99448.31;5208206;28;20045;-69
2022/01/09 09:46:09;;;;;;;7.35;1.92;;;6.50;99.90;;;6.38;87.85;99453.50;5208060;28;20050;-71
2022/01/09 09:48:41;;;;;;;7.82;2.40;;;6.50;99.90;;;6.42;87.13;99455.38;5208119;28;20052;-71
2022/01/09 09:51:13;;;;;;;7.03;1.95;;;6.50;99.90;;;6.45;87.07;99468.38;5207945;28;20042;-72
2022/01/09 09:53:45;;;;;;;6.13;2.20;;;6.50;99.90;;;6.38;86.42;99472.50;5207827;28;20057;-71
2022/01/09 09:56:17;;;;;;;8.02;2.60;;;6.40;99.90;;;6.38;87.09;99488.03;5207786;28;20107;-71
2022/01/09 09:58:51;;;;;;;4.90;2.20;;;6.50;99.90;;;6.35;86.74;99492.25;5208059;28;20054;-72
2022/01/09 10:01:27;;;;;;;3.83;1.65;;;6.40;99.90;;;6.39;87.44;99492.41;5207904;28;20061;-68
2022/01/09 10:04:02;;;;;;;9.50;2.15;;;6.40;99.90;;;6.44;87.50;99495.97;5207472;28;20073;-72
2022/01/09 10:06:37;;;;;;;5.90;2.22;;;6.50;99.90;;;6.47;86.92;99500.41;5207589;28;20491;-72
2022/01/09 10:09:12;;;;;;;5.95;2.25;;;6.50;99.90;;;6.45;87.62;99496.84;5207765;28;20045;-71
2022/01/09 10:11:50;;;;;;;7.95;2.72;;;6.50;99.90;;;6.42;87.97;99500.25;5207682;28;20132;-70
2022/01/09 10:14:26;;;;;;;5.32;2.40;;;6.60;99.90;;;6.49;88.08;99509.06;5207248;28;20064;-69
2022/01/09 10:17:11;;;;;;;6.63;1.83;;;6.50;99.90;;;6.51;87.14;99517.75;5207390;28;20049;-72
2022/01/09 10:19:47;;;;;;;9.90;2.08;;;6.60;99.90;;;6.54;87.34;99510.09;5207216;28;20063;-71
2022/01/09 10:22:39;;;;;;;12.20;2.40;;;6.60;99.90;;;6.50;86.58;99521.19;5207476;28;20041;-72
2022/01/09 10:25:31;;;;;;;4.97;2.08;;;6.60;99.90;;;6.49;85.69;99527.19;5207421;28;20132;-71
2022/01/09 10:28:07;;;;;;;5.10;1.98;;;6.50;99.90;;;6.42;86.38;99533.00;5207172;28;20049;-71
2022/01/09 10:30:43;;;;;;;6.13;2.17;;;6.50;99.90;;;6.39;87.37;99527.72;5206969;28;20055;-69
2022/01/09 10:33:18;;;;;;;6.13;2.13;;;6.50;99.90;;;6.44;86.54;99537.41;5206591;28;20045;-70
2022/01/09 10:35:51;;;;;;;3.90;1.60;;;6.50;99.90;;;6.48;85.30;99539.25;5205527;28;20425;-71
2022/01/09 10:38:27;;;;;;;6.45;2.13;;;6.50;99.90;;;6.40;86.21;99542.47;5206898;28;20406;-71
2022/01/09 10:41:01;;;;;;;;;;;6.50;99.90;;;6.39;86.63;99545.84;5206938;28;20061;-70
2022/01/09 10:43:36;;;;;;;5.75;1.67;;;6.50;99.90;;;6.38;87.02;99546.69;5206774;28;19928;-69
2022/01/09 10:46:10;;;;;;;4.85;1.83;;;6.50;99.90;;;6.40;87.19;99551.09;5206650;28;20050;-71
2022/01/09 10:48:43;;;;;;;8.35;2.17;;;6.50;99.90;;;6.44;87.11;99552.94;5206521;28;20045;-70
2022/01/09 10:51:17;;;;;;;7.95;1.77;;;6.50;99.90;;;6.47;87.43;99557.34;5206858;28;20441;-67
2022/01/09 10:53:49;;;;;;;5.35;1.98;;;6.50;99.90;;;6.55;87.33;99550.69;5206419;28;20483;-71